sensor_id;sensor_type;location;lat;lon;timestamp;P1;durP1;ratioP1;P2;durP2;ratioP2
26718;SDS011;14326;50.794;6.060;2023-04-01T00:00:40;4.25;;;1.08;;
26718;SDS011;14326;50.794;6.060;2023-04-01T00:06:08;7.45;;;0.88;;
26718;SDS011;14326;50.794;6.060;2023-04-01T00:09:05;2.70;;;1.00;;
26718;SDS011;14326;50.794;6.060;2023-04-01T00:12:01;7.55;;;1.17;;
26718;SDS011;14326;50.794;6.060;2023-04-01T00:15:01;8.85;;;1.42;;
26718;SDS011;14326;50.794;6.060;2023-04-01T00:18:04;7.93;;;1.40;;
26718;SDS011;14326;50.794;6.060;2023-04-01T00:20:58;5.07;;;0.95;;
26718;SDS011;14326;50.794;6.060;2023-04-01T00:26:42;7.07;;;1.15;;
26718;SDS011;14326;50.794;6.060;2023-04-01T00:29:41;8.15;;;1.50;;
26718;SDS011;14326;50.794;6.060;2023-04-01T00:32:11;6.80;;;0.95;;
26718;SDS011;14326;50.794;6.060;2023-04-01T00:35:03;2.88;;;0.93;;
26718;SDS011;14326;50.794;6.060;2023-04-01T00:37:47;4.75;;;0.90;;
26718;SDS011;14326;50.794;6.060;2023-04-01T00:40:22;4.82;;;1.20;;
26718;SDS011;14326;50.794;6.060;2023-04-01T00:42:53;6.32;;;1.17;;
26718;SDS011;14326;50.794;6.060;2023-04-01T00:45:25;3.83;;;1.02;;
26718;SDS011;14326;50.794;6.060;2023-04-01T00:47:56;3.90;;;1.00;;
26718;SDS011;14326;50.794;6.060;2023-04-01T00:50:27;4.72;;;0.93;;
26718;SDS011;14326;50.794;6.060;2023-04-01T00:52:58;9.93;;;1.58;;
26718;SDS011;14326;50.794;6.060;2023-04-01T00:55:30;12.18;;;1.38;;
26718;SDS011;14326;50.794;6.060;2023-04-01T00:58:21;6.30;;;0.93;;
26718;SDS011;14326;50.794;6.060;2023-04-01T01:01:15;9.55;;;1.30;;
26718;SDS011;14326;50.794;6.060;2023-04-01T01:03:44;4.70;;;0.88;;
26718;SDS011;14326;50.794;6.060;2023-04-01T01:06:19;4.20;;;1.30;;
26718;SDS011;14326;50.794;6.060;2023-04-01T01:08:58;5.50;;;1.00;;
26718;SDS011;14326;50.794;6.060;2023-04-01T01:11:38;4.70;;;1.13;;
26718;SDS011;14326;50.794;6.060;2023-04-01T01:14:57;7.68;;;1.23;;
26718;SDS011;14326;50.794;6.060;2023-04-01T01:17:41;5.20;;;1.00;;
26718;SDS011;14326;50.794;6.060;2023-04-01T01:21:02;9.10;;;1.15;;
26718;SDS011;14326;50.794;6.060;2023-04-01T01:27:23;3.35;;;0.60;;
26718;SDS011;14326;50.794;6.060;2023-04-01T01:36:12;5.45;;;1.00;;
26718;SDS011;14326;50.794;6.060;2023-04-01T01:39:14;3.03;;;0.60;;
26718;SDS011;14326;50.794;6.060;2023-04-01T01:41:59;2.47;;;0.68;;
26718;SDS011;14326;50.794;6.060;2023-04-01T01:47:57;5.53;;;0.60;;
26718;SDS011;14326;50.794;6.060;2023-04-01T01:50:41;1.55;;;0.52;;
26718;SDS011;14326;50.794;6.060;2023-04-01T01:53:25;3.33;;;0.70;;
26718;SDS011;14326;50.794;6.060;2023-04-01T01:56:12;2.25;;;0.57;;
26718;SDS011;14326;50.794;6.060;2023-04-01T02:01:35;0.88;;;0.38;;
26718;SDS011;14326;50.794;6.060;2023-04-01T02:04:05;2.15;;;0.50;;
26718;SDS011;14326;50.794;6.060;2023-04-01T02:06:37;1.92;;;0.55;;
26718;SDS011;14326;50.794;6.060;2023-04-01T02:09:16;1.65;;;0.70;;
26718;SDS011;14326;50.794;6.060;2023-04-01T02:11:59;2.10;;;0.60;;
26718;SDS011;14326;50.794;6.060;2023-04-01T02:14:31;3.85;;;0.80;;
26718;SDS011;14326;50.794;6.060;2023-04-01T02:17:12;2.13;;;0.45;;
26718;SDS011;14326;50.794;6.060;2023-04-01T02:19:49;1.65;;;0.60;;
26718;SDS011;14326;50.794;6.060;2023-04-01T02:22:20;1.60;;;0.60;;
26718;SDS011;14326;50.794;6.060;2023-04-01T02:24:51;2.10;;;0.70;;
26718;SDS011;14326;50.794;6.060;2023-04-01T02:27:23;2.95;;;0.90;;
26718;SDS011;14326;50.794;6.060;2023-04-01T02:29:50;5.18;;;1.08;;
26718;SDS011;14326;50.794;6.060;2023-04-01T02:32:23;1.63;;;0.80;;
26718;SDS011;14326;50.794;6.060;2023-04-01T02:35:00;2.92;;;0.85;;
26718;SDS011;14326;50.794;6.060;2023-04-01T02:40:12;3.67;;;0.63;;
26718;SDS011;14326;50.794;6.060;2023-04-01T02:42:45;1.08;;;0.60;;
26718;SDS011;14326;50.794;6.060;2023-04-01T02:45:13;1.83;;;0.90;;
26718;SDS011;14326;50.794;6.060;2023-04-01T02:47:42;4.63;;;0.88;;
26718;SDS011;14326;50.794;6.060;2023-04-01T02:50:11;3.10;;;0.90;;
26718;SDS011;14326;50.794;6.060;2023-04-01T02:52:46;7.38;;;1.05;;
26718;SDS011;14326;50.794;6.060;2023-04-01T02:55:15;2.50;;;0.63;;
26718;SDS011;14326;50.794;6.060;2023-04-01T02:57:48;4.53;;;0.90;;
26718;SDS011;14326;50.794;6.060;2023-04-01T03:00:29;2.88;;;0.85;;
26718;SDS011;14326;50.794;6.060;2023-04-01T03:06:01;2.35;;;0.63;;
26718;SDS011;14326;50.794;6.060;2023-04-01T03:09:03;2.22;;;0.75;;
26718;SDS011;14326;50.794;6.060;2023-04-01T03:11:31;1.83;;;0.70;;
26718;SDS011;14326;50.794;6.060;2023-04-01T03:13:58;3.28;;;0.68;;
26718;SDS011;14326;50.794;6.060;2023-04-01T03:16:28;2.03;;;0.60;;
26718;SDS011;14326;50.794;6.060;2023-04-01T03:19:21;1.90;;;0.80;;
26718;SDS011;14326;50.794;6.060;2023-04-01T03:22:14;2.17;;;0.90;;
26718;SDS011;14326;50.794;6.060;2023-04-01T03:24:57;2.60;;;1.08;;
26718;SDS011;14326;50.794;6.060;2023-04-01T03:27:29;4.45;;;0.60;;
26718;SDS011;14326;50.794;6.060;2023-04-01T03:29:59;2.95;;;0.77;;
26718;SDS011;14326;50.794;6.060;2023-04-01T03:32:35;4.43;;;0.98;;
26718;SDS011;14326;50.794;6.060;2023-04-01T03:35:01;2.40;;;0.68;;
26718;SDS011;14326;50.794;6.060;2023-04-01T03:37:43;1.67;;;0.70;;
26718;SDS011;14326;50.794;6.060;2023-04-01T03:40:22;1.55;;;0.70;;
26718;SDS011;14326;50.794;6.060;2023-04-01T03:42:52;1.10;;;0.68;;
26718;SDS011;14326;50.794;6.060;2023-04-01T03:45:28;1.08;;;0.68;;
26718;SDS011;14326;50.794;6.060;2023-04-01T03:48:06;3.63;;;0.77;;
26718;SDS011;14326;50.794;6.060;2023-04-01T03:50:36;0.85;;;0.65;;
26718;SDS011;14326;50.794;6.060;2023-04-01T03:56:03;4.18;;;0.90;;
26718;SDS011;14326;50.794;6.060;2023-04-01T03:58:44;3.47;;;0.80;;
26718;SDS011;14326;50.794;6.060;2023-04-01T04:01:18;1.20;;;0.70;;
26718;SDS011;14326;50.794;6.060;2023-04-01T04:06:50;2.10;;;0.65;;
26718;SDS011;14326;50.794;6.060;2023-04-01T04:09:23;4.13;;;0.90;;
26718;SDS011;14326;50.794;6.060;2023-04-01T04:11:59;2.38;;;0.82;;
26718;SDS011;14326;50.794;6.060;2023-04-01T04:14:34;1.77;;;0.80;;
26718;SDS011;14326;50.794;6.060;2023-04-01T04:17:09;5.88;;;1.08;;
26718;SDS011;14326;50.794;6.060;2023-04-01T04:19:52;3.65;;;1.20;;
26718;SDS011;14326;50.794;6.060;2023-04-01T04:22:21;2.83;;;1.20;;
26718;SDS011;14326;50.794;6.060;2023-04-01T04:24:50;4.35;;;1.48;;
26718;SDS011;14326;50.794;6.060;2023-04-01T04:27:17;6.32;;;1.50;;
26718;SDS011;14326;50.794;6.060;2023-04-01T04:29:45;3.15;;;1.30;;
26718;SDS011;14326;50.794;6.060;2023-04-01T04:32:15;3.28;;;1.50;;
26718;SDS011;14326;50.794;6.060;2023-04-01T04:34:48;2.13;;;0.80;;
26718;SDS011;14326;50.794;6.060;2023-04-01T04:37:15;2.40;;;1.05;;
26718;SDS011;14326;50.794;6.060;2023-04-01T04:39:42;1.67;;;1.00;;
26718;SDS011;14326;50.794;6.060;2023-04-01T04:42:09;2.10;;;0.90;;
26718;SDS011;14326;50.794;6.060;2023-04-01T04:44:35;3.33;;;1.20;;
26718;SDS011;14326;50.794;6.060;2023-04-01T04:47:05;2.60;;;1.10;;
26718;SDS011;14326;50.794;6.060;2023-04-01T04:49:32;2.85;;;1.38;;
26718;SDS011;14326;50.794;6.060;2023-04-01T04:52:01;3.67;;;1.50;;
26718;SDS011;14326;50.794;6.060;2023-04-01T04:54:31;5.57;;;1.73;;
26718;SDS011;14326;50.794;6.060;2023-04-01T04:56:58;2.05;;;1.13;;
26718;SDS011;14326;50.794;6.060;2023-04-01T04:59:24;3.22;;;1.30;;
26718;SDS011;14326;50.794;6.060;2023-04-01T05:01:51;2.80;;;1.60;;
26718;SDS011;14326;50.794;6.060;2023-04-01T05:04:19;7.90;;;1.83;;
26718;SDS011;14326;50.794;6.060;2023-04-01T05:06:46;3.70;;;1.63;;
26718;SDS011;14326;50.794;6.060;2023-04-01T05:09:14;2.75;;;1.52;;
26718;SDS011;14326;50.794;6.060;2023-04-01T05:11:41;3.90;;;1.70;;
26718;SDS011;14326;50.794;6.060;2023-04-01T05:16:43;6.78;;;1.70;;
26718;SDS011;14326;50.794;6.060;2023-04-01T05:19:10;4.95;;;1.80;;
26718;SDS011;14326;50.794;6.060;2023-04-01T05:21:41;6.93;;;2.35;;
26718;SDS011;14326;50.794;6.060;2023-04-01T05:24:11;6.82;;;2.30;;
26718;SDS011;14326;50.794;6.060;2023-04-01T05:26:41;10.65;;;3.20;;
26718;SDS011;14326;50.794;6.060;2023-04-01T05:29:08;8.60;;;2.78;;
26718;SDS011;14326;50.794;6.060;2023-04-01T05:31:45;13.43;;;3.60;;
26718;SDS011;14326;50.794;6.060;2023-04-01T05:34:12;15.95;;;4.20;;
26718;SDS011;14326;50.794;6.060;2023-04-01T05:39:54;14.98;;;3.75;;
26718;SDS011;14326;50.794;6.060;2023-04-01T05:42:24;10.73;;;3.40;;
26718;SDS011;14326;50.794;6.060;2023-04-01T05:44:51;12.32;;;3.63;;
26718;SDS011;14326;50.794;6.060;2023-04-01T05:47:18;11.60;;;3.28;;
26718;SDS011;14326;50.794;6.060;2023-04-01T05:49:44;15.48;;;3.63;;
26718;SDS011;14326;50.794;6.060;2023-04-01T05:55:39;10.15;;;2.90;;
26718;SDS011;14326;50.794;6.060;2023-04-01T05:58:17;10.30;;;3.35;;
26718;SDS011;14326;50.794;6.060;2023-04-01T06:01:05;11.70;;;3.03;;
26718;SDS011;14326;50.794;6.060;2023-04-01T06:03:33;10.52;;;3.45;;
26718;SDS011;14326;50.794;6.060;2023-04-01T06:06:00;12.35;;;3.92;;
26718;SDS011;14326;50.794;6.060;2023-04-01T06:08:27;12.57;;;4.25;;
26718;SDS011;14326;50.794;6.060;2023-04-01T06:11:01;13.50;;;4.00;;
26718;SDS011;14326;50.794;6.060;2023-04-01T06:13:46;14.15;;;4.40;;
26718;SDS011;14326;50.794;6.060;2023-04-01T06:16:36;15.68;;;4.07;;
26718;SDS011;14326;50.794;6.060;2023-04-01T06:19:17;11.82;;;3.47;;
26718;SDS011;14326;50.794;6.060;2023-04-01T06:24:57;10.55;;;3.70;;
26718;SDS011;14326;50.794;6.060;2023-04-01T06:27:45;9.70;;;3.15;;
26718;SDS011;14326;50.794;6.060;2023-04-01T06:30:37;8.52;;;3.00;;
26718;SDS011;14326;50.794;6.060;2023-04-01T06:33:13;9.20;;;3.17;;
26718;SDS011;14326;50.794;6.060;2023-04-01T06:36:20;12.10;;;3.20;;
26718;SDS011;14326;50.794;6.060;2023-04-01T06:45:12;9.10;;;2.90;;
26718;SDS011;14326;50.794;6.060;2023-04-01T06:47:57;13.70;;;3.17;;
26718;SDS011;14326;50.794;6.060;2023-04-01T06:50:37;9.23;;;3.00;;
26718;SDS011;14326;50.794;6.060;2023-04-01T06:53:47;10.75;;;3.25;;
26718;SDS011;14326;50.794;6.060;2023-04-01T06:56:30;7.45;;;3.00;;
26718;SDS011;14326;50.794;6.060;2023-04-01T06:59:12;8.88;;;2.50;;
26718;SDS011;14326;50.794;6.060;2023-04-01T07:01:52;7.47;;;2.53;;
26718;SDS011;14326;50.794;6.060;2023-04-01T07:04:21;6.38;;;2.53;;
26718;SDS011;14326;50.794;6.060;2023-04-01T07:06:52;7.82;;;2.40;;
26718;SDS011;14326;50.794;6.060;2023-04-01T07:09:58;7.22;;;2.35;;
26718;SDS011;14326;50.794;6.060;2023-04-01T07:12:48;6.35;;;2.10;;
26718;SDS011;14326;50.794;6.060;2023-04-01T07:15:19;6.72;;;2.30;;
26718;SDS011;14326;50.794;6.060;2023-04-01T07:18:00;5.50;;;2.00;;
26718;SDS011;14326;50.794;6.060;2023-04-01T07:20:45;7.38;;;2.00;;
26718;SDS011;14326;50.794;6.060;2023-04-01T07:23:36;3.25;;;1.75;;
26718;SDS011;14326;50.794;6.060;2023-04-01T07:26:28;4.22;;;1.85;;
26718;SDS011;14326;50.794;6.060;2023-04-01T07:29:11;4.15;;;2.20;;
26718;SDS011;14326;50.794;6.060;2023-04-01T07:32:19;3.95;;;1.95;;
26718;SDS011;14326;50.794;6.060;2023-04-01T07:35:04;6.20;;;2.22;;
26718;SDS011;14326;50.794;6.060;2023-04-01T07:37:40;6.07;;;1.98;;
26718;SDS011;14326;50.794;6.060;2023-04-01T07:40:36;5.70;;;2.00;;
26718;SDS011;14326;50.794;6.060;2023-04-01T07:43:15;4.68;;;2.05;;
26718;SDS011;14326;50.794;6.060;2023-04-01T07:45:58;5.65;;;2.30;;
26718;SDS011;14326;50.794;6.060;2023-04-01T07:48:46;7.25;;;1.95;;
26718;SDS011;14326;50.794;6.060;2023-04-01T07:51:37;7.38;;;2.10;;
26718;SDS011;14326;50.794;6.060;2023-04-01T07:54:13;6.72;;;2.03;;
26718;SDS011;14326;50.794;6.060;2023-04-01T07:57:17;7.10;;;2.20;;
26718;SDS011;14326;50.794;6.060;2023-04-01T08:00:15;5.68;;;1.95;;
26718;SDS011;14326;50.794;6.060;2023-04-01T08:03:01;5.57;;;2.40;;
26718;SDS011;14326;50.794;6.060;2023-04-01T08:05:55;5.53;;;2.22;;
26718;SDS011;14326;50.794;6.060;2023-04-01T08:08:58;6.65;;;2.45;;
26718;SDS011;14326;50.794;6.060;2023-04-01T08:11:48;4.65;;;2.17;;
26718;SDS011;14326;50.794;6.060;2023-04-01T08:14:47;7.10;;;2.22;;
26718;SDS011;14326;50.794;6.060;2023-04-01T08:17:26;5.95;;;2.33;;
26718;SDS011;14326;50.794;6.060;2023-04-01T08:20:10;5.88;;;2.20;;
26718;SDS011;14326;50.794;6.060;2023-04-01T08:22:53;5.90;;;2.28;;
26718;SDS011;14326;50.794;6.060;2023-04-01T08:30:38;4.72;;;2.00;;
26718;SDS011;14326;50.794;6.060;2023-04-01T08:33:21;5.72;;;1.85;;
26718;SDS011;14326;50.794;6.060;2023-04-01T08:35:59;3.42;;;1.60;;
26718;SDS011;14326;50.794;6.060;2023-04-01T08:38:59;3.65;;;1.38;;
26718;SDS011;14326;50.794;6.060;2023-04-01T08:45:03;4.03;;;1.95;;
26718;SDS011;14326;50.794;6.060;2023-04-01T08:48:04;4.95;;;2.10;;
26718;SDS011;14326;50.794;6.060;2023-04-01T08:51:09;6.97;;;2.40;;
26718;SDS011;14326;50.794;6.060;2023-04-01T08:54:08;6.55;;;2.05;;
26718;SDS011;14326;50.794;6.060;2023-04-01T08:57:03;5.30;;;2.20;;
26718;SDS011;14326;50.794;6.060;2023-04-01T08:59:56;6.88;;;2.10;;
26718;SDS011;14326;50.794;6.060;2023-04-01T09:03:04;5.35;;;1.80;;
26718;SDS011;14326;50.794;6.060;2023-04-01T09:06:01;7.80;;;2.50;;
26718;SDS011;14326;50.794;6.060;2023-04-01T09:12:06;6.90;;;2.38;;
26718;SDS011;14326;50.794;6.060;2023-04-01T09:15:21;5.20;;;2.10;;
26718;SDS011;14326;50.794;6.060;2023-04-01T09:21:39;7.85;;;2.63;;
26718;SDS011;14326;50.794;6.060;2023-04-01T09:24:34;6.45;;;2.40;;
26718;SDS011;14326;50.794;6.060;2023-04-01T09:33:54;8.25;;;2.35;;
26718;SDS011;14326;50.794;6.060;2023-04-01T09:36:52;5.18;;;2.03;;
26718;SDS011;14326;50.794;6.060;2023-04-01T09:39:36;6.45;;;2.30;;
26718;SDS011;14326;50.794;6.060;2023-04-01T09:45:55;6.00;;;1.88;;
26718;SDS011;14326;50.794;6.060;2023-04-01T09:52:18;6.15;;;1.67;;
26718;SDS011;14326;50.794;6.060;2023-04-01T09:58:29;7.07;;;1.67;;
26718;SDS011;14326;50.794;6.060;2023-04-01T10:01:47;3.70;;;1.85;;
26718;SDS011;14326;50.794;6.060;2023-04-01T10:08:05;3.78;;;1.80;;
26718;SDS011;14326;50.794;6.060;2023-04-01T10:11:07;3.15;;;1.73;;
26718;SDS011;14326;50.794;6.060;2023-04-01T10:14:33;3.67;;;1.55;;
26718;SDS011;14326;50.794;6.060;2023-04-01T10:17:37;4.97;;;1.45;;
26718;SDS011;14326;50.794;6.060;2023-04-01T10:20:31;2.03;;;1.17;;
26718;SDS011;14326;50.794;6.060;2023-04-01T10:47:30;3.15;;;1.40;;
26718;SDS011;14326;50.794;6.060;2023-04-01T10:50:35;4.97;;;1.98;;
26718;SDS011;14326;50.794;6.060;2023-04-01T10:53:36;4.75;;;1.80;;
26718;SDS011;14326;50.794;6.060;2023-04-01T11:17:34;1.88;;;1.30;;
26718;SDS011;14326;50.794;6.060;2023-04-01T11:23:28;2.35;;;1.23;;
26718;SDS011;14326;50.794;6.060;2023-04-01T11:26:11;4.25;;;1.55;;
26718;SDS011;14326;50.794;6.060;2023-04-01T11:32:07;4.00;;;1.48;;
26718;SDS011;14326;50.794;6.060;2023-04-01T11:37:48;3.30;;;1.73;;
26718;SDS011;14326;50.794;6.060;2023-04-01T11:40:37;5.63;;;2.10;;
26718;SDS011;14326;50.794;6.060;2023-04-01T11:43:16;4.25;;;1.80;;
26718;SDS011;14326;50.794;6.060;2023-04-01T11:49:14;4.82;;;2.08;;
26718;SDS011;14326;50.794;6.060;2023-04-01T11:52:28;4.35;;;2.05;;
26718;SDS011;14326;50.794;6.060;2023-04-01T11:55:22;6.55;;;2.13;;
26718;SDS011;14326;50.794;6.060;2023-04-01T11:57:58;5.00;;;2.08;;
26718;SDS011;14326;50.794;6.060;2023-04-01T12:01:22;4.45;;;2.10;;
26718;SDS011;14326;50.794;6.060;2023-04-01T12:04:06;4.25;;;2.08;;
26718;SDS011;14326;50.794;6.060;2023-04-01T12:06:54;4.35;;;2.20;;
26718;SDS011;14326;50.794;6.060;2023-04-01T12:09:30;3.25;;;1.83;;
26718;SDS011;14326;50.794;6.060;2023-04-01T12:12:11;4.38;;;1.90;;
26718;SDS011;14326;50.794;6.060;2023-04-01T12:14:44;4.45;;;1.90;;
26718;SDS011;14326;50.794;6.060;2023-04-01T12:17:28;3.67;;;1.95;;
26718;SDS011;14326;50.794;6.060;2023-04-01T12:20:31;3.08;;;1.70;;
26718;SDS011;14326;50.794;6.060;2023-04-01T12:26:03;5.10;;;2.35;;
26718;SDS011;14326;50.794;6.060;2023-04-01T12:28:58;5.72;;;2.33;;
26718;SDS011;14326;50.794;6.060;2023-04-01T12:31:41;5.88;;;2.17;;
26718;SDS011;14326;50.794;6.060;2023-04-01T12:37:43;6.88;;;2.60;;
26718;SDS011;14326;50.794;6.060;2023-04-01T12:43:34;8.00;;;3.28;;
26718;SDS011;14326;50.794;6.060;2023-04-01T12:46:36;8.98;;;3.17;;
26718;SDS011;14326;50.794;6.060;2023-04-01T12:49:59;8.48;;;3.00;;
26718;SDS011;14326;50.794;6.060;2023-04-01T12:53:01;7.05;;;2.80;;
26718;SDS011;14326;50.794;6.060;2023-04-01T12:55:50;9.18;;;3.00;;
26718;SDS011;14326;50.794;6.060;2023-04-01T13:04:58;5.63;;;2.50;;
26718;SDS011;14326;50.794;6.060;2023-04-01T13:07:58;6.78;;;3.08;;
26718;SDS011;14326;50.794;6.060;2023-04-01T13:10:32;7.78;;;2.63;;
26718;SDS011;14326;50.794;6.060;2023-04-01T13:13:34;6.90;;;2.95;;
26718;SDS011;14326;50.794;6.060;2023-04-01T13:16:37;6.63;;;2.25;;
26718;SDS011;14326;50.794;6.060;2023-04-01T13:19:19;5.53;;;2.13;;
26718;SDS011;14326;50.794;6.060;2023-04-01T13:22:04;4.68;;;1.95;;
26718;SDS011;14326;50.794;6.060;2023-04-01T13:27:37;5.13;;;2.15;;
26718;SDS011;14326;50.794;6.060;2023-04-01T13:30:33;3.17;;;1.85;;
26718;SDS011;14326;50.794;6.060;2023-04-01T13:33:04;4.03;;;2.00;;
26718;SDS011;14326;50.794;6.060;2023-04-01T13:35:43;4.95;;;1.77;;
26718;SDS011;14326;50.794;6.060;2023-04-01T13:41:22;5.18;;;1.90;;
26718;SDS011;14326;50.794;6.060;2023-04-01T13:44:00;3.35;;;1.73;;
26718;SDS011;14326;50.794;6.060;2023-04-01T13:46:40;3.00;;;1.35;;
26718;SDS011;14326;50.794;6.060;2023-04-01T13:54:59;3.60;;;1.70;;
26718;SDS011;14326;50.794;6.060;2023-04-01T13:57:52;2.75;;;1.50;;
26718;SDS011;14326;50.794;6.060;2023-04-01T14:00:46;2.85;;;1.33;;
26718;SDS011;14326;50.794;6.060;2023-04-01T14:03:27;4.95;;;1.80;;
26718;SDS011;14326;50.794;6.060;2023-04-01T14:09:11;2.75;;;1.30;;
26718;SDS011;14326;50.794;6.060;2023-04-01T14:11:56;2.58;;;1.42;;
26718;SDS011;14326;50.794;6.060;2023-04-01T14:14:35;2.25;;;1.40;;
26718;SDS011;14326;50.794;6.060;2023-04-01T14:17:38;2.47;;;1.52;;
26718;SDS011;14326;50.794;6.060;2023-04-01T14:23:13;3.80;;;1.65;;
26718;SDS011;14326;50.794;6.060;2023-04-01T14:26:02;4.95;;;1.83;;
26718;SDS011;14326;50.794;6.060;2023-04-01T14:28:39;3.47;;;1.38;;
26718;SDS011;14326;50.794;6.060;2023-04-01T14:34:17;1.85;;;1.25;;
26718;SDS011;14326;50.794;6.060;2023-04-01T14:36:55;3.13;;;1.30;;
26718;SDS011;14326;50.794;6.060;2023-04-01T14:39:47;1.08;;;0.98;;
26718;SDS011;14326;50.794;6.060;2023-04-01T14:42:29;2.92;;;1.55;;
26718;SDS011;14326;50.794;6.060;2023-04-01T14:48:21;3.95;;;1.58;;
26718;SDS011;14326;50.794;6.060;2023-04-01T14:50:52;1.80;;;1.23;;
26718;SDS011;14326;50.794;6.060;2023-04-01T14:53:26;3.58;;;1.42;;
26718;SDS011;14326;50.794;6.060;2023-04-01T14:55:57;3.03;;;1.42;;
26718;SDS011;14326;50.794;6.060;2023-04-01T14:58:27;2.83;;;1.50;;
26718;SDS011;14326;50.794;6.060;2023-04-01T15:01:20;2.10;;;1.17;;
26718;SDS011;14326;50.794;6.060;2023-04-01T15:04:20;5.55;;;1.63;;
26718;SDS011;14326;50.794;6.060;2023-04-01T15:10:09;3.72;;;1.45;;
26718;SDS011;14326;50.794;6.060;2023-04-01T15:12:53;3.22;;;1.60;;
26718;SDS011;14326;50.794;6.060;2023-04-01T15:16:13;3.95;;;1.60;;
26718;SDS011;14326;50.794;6.060;2023-04-01T15:19:12;5.13;;;1.67;;
26718;SDS011;14326;50.794;6.060;2023-04-01T15:22:15;3.63;;;1.70;;
26718;SDS011;14326;50.794;6.060;2023-04-01T15:25:05;14.43;;;5.35;;
26718;SDS011;14326;50.794;6.060;2023-04-01T15:27:55;3.25;;;1.80;;
26718;SDS011;14326;50.794;6.060;2023-04-01T15:30:37;5.60;;;1.90;;
26718;SDS011;14326;50.794;6.060;2023-04-01T15:36:39;6.63;;;2.03;;
26718;SDS011;14326;50.794;6.060;2023-04-01T15:39:45;2.60;;;1.50;;
26718;SDS011;14326;50.794;6.060;2023-04-01T15:42:37;4.78;;;1.45;;
26718;SDS011;14326;50.794;6.060;2023-04-01T15:45:31;4.50;;;1.73;;
26718;SDS011;14326;50.794;6.060;2023-04-01T15:51:26;4.85;;;1.77;;
26718;SDS011;14326;50.794;6.060;2023-04-01T15:57:25;4.57;;;1.70;;
26718;SDS011;14326;50.794;6.060;2023-04-01T16:03:30;4.03;;;1.73;;
26718;SDS011;14326;50.794;6.060;2023-04-01T16:06:11;3.72;;;2.05;;
26718;SDS011;14326;50.794;6.060;2023-04-01T16:09:22;4.82;;;2.03;;
26718;SDS011;14326;50.794;6.060;2023-04-01T16:12:05;5.07;;;2.00;;
26718;SDS011;14326;50.794;6.060;2023-04-01T16:14:43;4.93;;;1.80;;
26718;SDS011;14326;50.794;6.060;2023-04-01T16:17:29;4.68;;;2.15;;
26718;SDS011;14326;50.794;6.060;2023-04-01T16:20:13;5.03;;;1.90;;
26718;SDS011;14326;50.794;6.060;2023-04-01T16:22:45;3.75;;;2.00;;
26718;SDS011;14326;50.794;6.060;2023-04-01T16:25:26;4.13;;;2.30;;
26718;SDS011;14326;50.794;6.060;2023-04-01T16:28:05;4.32;;;2.08;;
26718;SDS011;14326;50.794;6.060;2023-04-01T16:31:12;4.45;;;2.05;;
26718;SDS011;14326;50.794;6.060;2023-04-01T16:34:08;6.50;;;2.88;;
26718;SDS011;14326;50.794;6.060;2023-04-01T16:37:07;3.78;;;1.98;;
26718;SDS011;14326;50.794;6.060;2023-04-01T16:40:09;5.93;;;2.60;;
26718;SDS011;14326;50.794;6.060;2023-04-01T16:45:35;5.75;;;2.60;;
26718;SDS011;14326;50.794;6.060;2023-04-01T16:48:11;4.35;;;2.30;;
26718;SDS011;14326;50.794;6.060;2023-04-01T16:50:41;7.03;;;2.90;;
26718;SDS011;14326;50.794;6.060;2023-04-01T16:55:50;7.15;;;2.85;;
26718;SDS011;14326;50.794;6.060;2023-04-01T17:01:08;5.47;;;2.72;;
26718;SDS011;14326;50.794;6.060;2023-04-01T17:03:49;8.07;;;2.78;;
26718;SDS011;14326;50.794;6.060;2023-04-01T17:06:23;6.55;;;2.83;;
26718;SDS011;14326;50.794;6.060;2023-04-01T17:09:20;8.23;;;2.90;;
26718;SDS011;14326;50.794;6.060;2023-04-01T17:11:58;7.28;;;2.85;;
26718;SDS011;14326;50.794;6.060;2023-04-01T17:14:38;5.07;;;2.63;;
26718;SDS011;14326;50.794;6.060;2023-04-01T17:20:18;14.60;;;3.05;;
26718;SDS011;14326;50.794;6.060;2023-04-01T17:23:21;10.73;;;3.30;;
26718;SDS011;14326;50.794;6.060;2023-04-01T17:26:24;9.68;;;3.65;;
26718;SDS011;14326;50.794;6.060;2023-04-01T17:29:01;9.63;;;3.38;;
26718;SDS011;14326;50.794;6.060;2023-04-01T17:32:02;9.38;;;3.88;;
26718;SDS011;14326;50.794;6.060;2023-04-01T17:34:51;8.32;;;3.42;;
26718;SDS011;14326;50.794;6.060;2023-04-01T17:37:49;8.43;;;3.50;;
26718;SDS011;14326;50.794;6.060;2023-04-01T17:40:37;12.68;;;4.10;;
26718;SDS011;14326;50.794;6.060;2023-04-01T17:43:14;11.35;;;3.95;;
26718;SDS011;14326;50.794;6.060;2023-04-01T17:45:54;11.05;;;4.38;;
26718;SDS011;14326;50.794;6.060;2023-04-01T17:48:43;9.68;;;3.67;;
26718;SDS011;14326;50.794;6.060;2023-04-01T17:51:35;9.20;;;3.90;;
26718;SDS011;14326;50.794;6.060;2023-04-01T17:54:42;13.70;;;4.80;;
26718;SDS011;14326;50.794;6.060;2023-04-01T17:57:46;11.75;;;4.30;;
26718;SDS011;14326;50.794;6.060;2023-04-01T18:00:46;11.68;;;3.83;;
26718;SDS011;14326;50.794;6.060;2023-04-01T18:03:41;8.20;;;3.20;;
26718;SDS011;14326;50.794;6.060;2023-04-01T18:09:20;8.02;;;2.90;;
26718;SDS011;14326;50.794;6.060;2023-04-01T18:12:14;8.23;;;3.08;;
26718;SDS011;14326;50.794;6.060;2023-04-01T18:14:54;7.72;;;2.90;;
26718;SDS011;14326;50.794;6.060;2023-04-01T18:18:11;7.00;;;2.58;;
26718;SDS011;14326;50.794;6.060;2023-04-01T18:21:08;8.52;;;2.67;;
26718;SDS011;14326;50.794;6.060;2023-04-01T18:24:18;6.03;;;2.65;;
26718;SDS011;14326;50.794;6.060;2023-04-01T18:27:09;5.38;;;2.30;;
26718;SDS011;14326;50.794;6.060;2023-04-01T18:30:14;5.90;;;2.40;;
26718;SDS011;14326;50.794;6.060;2023-04-01T18:32:57;5.38;;;2.45;;
26718;SDS011;14326;50.794;6.060;2023-04-01T18:35:29;4.47;;;2.33;;
26718;SDS011;14326;50.794;6.060;2023-04-01T18:38:11;4.75;;;2.17;;
26718;SDS011;14326;50.794;6.060;2023-04-01T18:40:47;7.30;;;2.70;;
26718;SDS011;14326;50.794;6.060;2023-04-01T18:43:27;6.65;;;2.47;;
26718;SDS011;14326;50.794;6.060;2023-04-01T18:46:19;5.55;;;2.33;;
26718;SDS011;14326;50.794;6.060;2023-04-01T18:49:02;5.82;;;2.50;;
26718;SDS011;14326;50.794;6.060;2023-04-01T18:51:54;7.85;;;2.78;;
26718;SDS011;14326;50.794;6.060;2023-04-01T18:54:26;6.43;;;2.53;;
26718;SDS011;14326;50.794;6.060;2023-04-01T18:57:28;4.75;;;2.33;;
26718;SDS011;14326;50.794;6.060;2023-04-01T19:00:23;5.97;;;2.67;;
26718;SDS011;14326;50.794;6.060;2023-04-01T19:03:00;6.25;;;2.58;;
26718;SDS011;14326;50.794;6.060;2023-04-01T19:05:35;5.75;;;2.70;;
26718;SDS011;14326;50.794;6.060;2023-04-01T19:10:53;5.93;;;3.08;;
26718;SDS011;14326;50.794;6.060;2023-04-01T19:13:36;7.13;;;3.50;;
26718;SDS011;14326;50.794;6.060;2023-04-01T19:16:15;8.23;;;3.40;;
26718;SDS011;14326;50.794;6.060;2023-04-01T19:19:03;8.18;;;3.38;;
26718;SDS011;14326;50.794;6.060;2023-04-01T19:21:40;6.28;;;3.10;;
26718;SDS011;14326;50.794;6.060;2023-04-01T19:27:14;9.85;;;3.95;;
26718;SDS011;14326;50.794;6.060;2023-04-01T19:30:02;10.43;;;3.83;;
26718;SDS011;14326;50.794;6.060;2023-04-01T19:33:02;11.77;;;4.22;;
26718;SDS011;14326;50.794;6.060;2023-04-01T19:38:14;13.32;;;4.32;;
26718;SDS011;14326;50.794;6.060;2023-04-01T19:40:51;12.52;;;4.40;;
26718;SDS011;14326;50.794;6.060;2023-04-01T19:46:55;10.23;;;4.00;;
26718;SDS011;14326;50.794;6.060;2023-04-01T19:49:59;10.27;;;4.20;;
26718;SDS011;14326;50.794;6.060;2023-04-01T19:52:35;11.85;;;4.50;;
26718;SDS011;14326;50.794;6.060;2023-04-01T19:55:20;12.15;;;4.75;;
26718;SDS011;14326;50.794;6.060;2023-04-01T19:58:20;10.30;;;3.95;;
26718;SDS011;14326;50.794;6.060;2023-04-01T20:01:31;9.73;;;4.10;;
26718;SDS011;14326;50.794;6.060;2023-04-01T20:07:12;11.25;;;4.05;;
26718;SDS011;14326;50.794;6.060;2023-04-01T20:09:51;11.32;;;3.88;;
26718;SDS011;14326;50.794;6.060;2023-04-01T20:12:38;10.75;;;3.78;;
26718;SDS011;14326;50.794;6.060;2023-04-01T20:15:21;10.35;;;4.00;;